Time;durP1;ratioP1;P1;durP2;ratioP2;P2;SDS_P1;SDS_P2;PMS_P1;PMS_P2;Temp;Humidity;BMP_temperature;BMP_pressure;BME280_temperature;BME280_humidity;BME280_pressure;Samples;Min_cycle;Max_cycle;Signal;HPM_P1;HPM_P2
2023/09/07 00:01:52;;;;;;;10.88;7.25;;;20.80;99.90;;;;;;5075631;28;20054;-73
2023/09/07 00:04:22;;;;;;;10.52;8.38;;;20.80;99.90;;;;;;5075546;28;20042;-73
2023/09/07 00:06:49;;;;;;;13.73;9.02;;;20.80;99.90;;;;;;5078607;28;20032;-72
2023/09/07 00:09:18;;;;;;;10.93;8.13;;;20.70;99.90;;;;;;5064138;28;20103;-73
2023/09/07 00:11:46;;;;;;;11.32;8.98;;;20.70;99.90;;;;;;5074484;28;20032;-72
2023/09/07 00:14:12;;;;;;;9.65;8.65;;;20.60;99.90;;;;;;5073003;28;20015;-73
2023/09/07 00:16:38;;;;;;;9.35;8.48;;;20.60;99.90;;;;;;5078913;28;20074;-72
2023/09/07 00:19:06;;;;;;;11.98;8.90;;;20.60;99.90;;;;;;5072502;28;20024;-73
2023/09/07 00:21:32;;;;;;;10.80;8.82;;;20.60;99.90;;;;;;5079187;28;20017;-73
2023/09/07 00:23:58;;;;;;;12.45;9.00;;;20.60;99.90;;;;;;5075850;28;20021;-72
2023/09/07 00:26:23;;;;;;;11.80;8.93;;;20.50;99.90;;;;;;5078471;28;20434;-73
2023/09/07 00:28:49;;;;;;;12.98;8.95;;;20.40;99.90;;;;;;5066853;28;20465;-73
2023/09/07 00:31:15;;;;;;;11.38;9.02;;;20.30;99.90;;;;;;5072763;28;20488;-72
2023/09/07 00:33:41;;;;;;;12.38;9.38;;;20.30;99.90;;;;;;5076748;28;20028;-73
2023/09/07 00:36:07;;;;;;;11.75;9.07;;;20.20;99.90;;;;;;5071004;28;20370;-73
2023/09/07 00:38:33;;;;;;;11.52;9.93;;;20.20;99.90;;;;;;5082048;28;20377;-72
2023/09/07 00:40:58;;;;;;;13.00;8.55;;;20.20;99.90;;;;;;5069975;28;20025;-72
2023/09/07 00:43:24;;;;;;;10.80;9.70;;;20.20;99.90;;;;;;5072129;28;20521;-72
2023/09/07 00:45:50;;;;;;;10.45;9.30;;;20.20;99.90;;;;;;5082314;28;20027;-72
2023/09/07 00:48:16;;;;;;;10.35;9.15;;;20.10;99.90;;;;;;5073751;28;20416;-72
2023/09/07 00:50:43;;;;;;;11.05;9.60;;;20.10;99.90;;;;;;5077042;28;20055;-73
2023/09/07 00:53:10;;;;;;;11.50;9.50;;;20.00;99.90;;;;;;5073231;28;20028;-72
2023/09/07 00:55:37;;;;;;;13.02;10.35;;;19.90;99.90;;;;;;5065204;28;20028;-72
2023/09/07 00:58:06;;;;;;;14.60;9.27;;;20.00;99.90;;;;;;5079686;28;20017;-73
2023/09/07 01:00:34;;;;;;;11.27;9.77;;;20.00;99.90;;;;;;5067918;28;20030;-72
2023/09/07 01:03:00;;;;;;;12.68;9.20;;;20.00;99.90;;;;;;5070763;28;20017;-72
2023/09/07 01:05:46;;;;;;;12.93;9.00;;;20.00;99.90;;;;;;5071544;28;20024;-72
2023/09/07 01:08:23;;;;;;;11.82;10.57;;;20.00;99.90;;;;;;5075310;28;20032;-72
2023/09/07 01:10:49;;;;;;;11.65;9.90;;;20.00;99.90;;;;;;5069732;28;20067;-72
2023/09/07 01:13:15;;;;;;;12.25;8.43;;;20.00;99.90;;;;;;5076595;28;20233;-73
2023/09/07 01:15:40;;;;;;;11.82;9.73;;;19.90;99.90;;;;;;5072828;28;20042;-72
2023/09/07 01:18:07;;;;;;;12.05;8.50;;;19.90;99.90;;;;;;5078993;28;20453;-72
2023/09/07 01:20:35;;;;;;;11.45;8.95;;;20.00;99.90;;;;;;5068413;28;20025;-72
2023/09/07 01:23:03;;;;;;;9.88;8.88;;;19.90;99.90;;;;;;5079276;28;20023;-72
2023/09/07 01:25:28;;;;;;;11.90;9.25;;;19.90;99.90;;;;;;5064386;28;20021;-72
2023/09/07 01:27:54;;;;;;;9.30;8.48;;;19.90;99.90;;;;;;5070394;28;20483;-72
2023/09/07 01:30:20;;;;;;;12.10;8.75;;;19.80;99.90;;;;;;5066210;28;20017;-72
2023/09/07 01:32:46;;;;;;;9.70;8.80;;;19.80;99.90;;;;;;5075771;28;20040;-72
2023/09/07 01:35:14;;;;;;;11.05;9.73;;;19.70;99.90;;;;;;5078553;28;20037;-72
2023/09/07 01:37:40;;;;;;;13.15;10.25;;;19.80;99.90;;;;;;5065224;28;20597;-72
2023/09/07 01:40:07;;;;;;;11.00;9.25;;;19.70;99.90;;;;;;5072972;28;20065;-72
2023/09/07 01:42:34;;;;;;;12.73;10.18;;;19.70;99.90;;;;;;5073330;28;20031;-72
2023/09/07 01:44:59;;;;;;;14.48;10.63;;;19.60;99.90;;;;;;5066376;28;20093;-72
2023/09/07 01:47:25;;;;;;;12.88;10.20;;;19.60;99.90;;;;;;5076912;28;21440;-72
2023/09/07 01:49:51;;;;;;;11.18;9.90;;;19.50;99.90;;;;;;5066648;28;20048;-72
2023/09/07 01:52:16;;;;;;;11.88;9.52;;;19.30;99.90;;;;;;5077855;28;20530;-72
2023/09/07 01:54:42;;;;;;;13.38;9.30;;;19.10;99.90;;;;;;5072309;28;20386;-73
2023/09/07 01:57:07;;;;;;;11.52;9.05;;;18.80;99.90;;;;;;5075525;28;20508;-73
2023/09/07 01:59:33;;;;;;;12.07;8.60;;;18.90;99.90;;;;;;5072659;28;20021;-72
2023/09/07 02:01:59;;;;;;;10.50;8.05;;;19.00;99.90;;;;;;5066870;28;20028;-72
2023/09/07 02:04:24;;;;;;;10.02;8.93;;;19.00;99.90;;;;;;5079370;28;20111;-72
2023/09/07 02:06:50;;;;;;;10.10;8.23;;;19.10;99.90;;;;;;5069126;28;20458;-71
2023/09/07 02:09:16;;;;;;;10.05;8.80;;;19.10;99.90;;;;;;5070552;28;20036;-72
2023/09/07 02:11:41;;;;;;;12.10;9.00;;;19.10;99.90;;;;;;5076483;28;20370;-72
2023/09/07 02:14:08;;;;;;;11.88;10.02;;;19.10;99.90;;;;;;5069317;28;20492;-72
2023/09/07 02:16:35;;;;;;;12.48;9.27;;;19.20;99.90;;;;;;5074573;28;20391;-72
2023/09/07 02:19:04;;;;;;;9.43;8.50;;;19.10;99.90;;;;;;5065774;28;20037;-72
2023/09/07 02:21:31;;;;;;;9.55;7.88;;;19.20;99.90;;;;;;5072665;28;20024;-72
2023/09/07 02:23:56;;;;;;;11.70;8.48;;;19.10;99.90;;;;;;5066143;28;20047;-72
2023/09/07 02:26:22;;;;;;;8.77;7.90;;;19.10;99.90;;;;;;5077175;28;20469;-72
2023/09/07 02:28:48;;;;;;;11.90;8.10;;;19.10;99.90;;;;;;5074850;28;20274;-72
2023/09/07 02:31:13;;;;;;;15.55;10.68;;;19.10;99.90;;;;;;5070506;28;20028;-72
2023/09/07 02:33:39;;;;;;;17.30;10.77;;;19.10;99.90;;;;;;5075160;28;20066;-72
2023/09/07 02:36:05;;;;;;;13.05;10.05;;;19.10;99.90;;;;;;5068747;28;20390;-72
2023/09/07 02:38:30;;;;;;;12.40;10.45;;;19.00;99.90;;;;;;5084422;28;20032;-72
2023/09/07 02:40:56;;;;;;;12.98;10.55;;;19.10;99.90;;;;;;5081024;28;20385;-72
2023/09/07 02:43:22;;;;;;;16.13;12.07;;;19.00;99.90;;;;;;5072580;28;20078;-72
2023/09/07 02:45:49;;;;;;;18.33;11.10;;;18.90;99.90;;;;;;5081561;28;20028;-72
2023/09/07 02:48:15;;;;;;;15.82;12.77;;;18.90;99.90;;;;;;5070228;28;20028;-73
2023/09/07 02:50:42;;;;;;;17.15;12.85;;;18.90;99.90;;;;;;5080917;28;20445;-73
2023/09/07 02:53:08;;;;;;;16.33;12.13;;;18.90;99.90;;;;;;5078119;28;20099;-72
2023/09/07 02:55:34;;;;;;;14.80;13.13;;;18.90;99.90;;;;;;5076710;28;20024;-72
2023/09/07 02:58:03;;;;;;;16.27;13.48;;;18.80;99.90;;;;;;5071249;28;20028;-72
2023/09/07 03:00:29;;;;;;;20.48;13.60;;;18.80;99.90;;;;;;5082906;28;20372;-72
2023/09/07 03:02:54;;;;;;;16.27;11.20;;;18.80;99.90;;;;;;5071152;28;20051;-71
2023/09/07 03:05:20;;;;;;;13.88;10.10;;;18.70;99.90;;;;;;5081379;28;20020;-72
2023/09/07 03:07:47;;;;;;;11.18;9.50;;;18.70;99.90;;;;;;5075393;28;20426;-72
2023/09/07 03:10:13;;;;;;;11.40;9.93;;;18.70;99.90;;;;;;5075351;28;20119;-73
2023/09/07 03:12:39;;;;;;;12.45;10.13;;;18.70;99.90;;;;;;5075959;28;20047;-73
2023/09/07 03:15:05;;;;;;;10.88;9.70;;;18.70;99.90;;;;;;5072827;28;20020;-73
2023/09/07 03:17:31;;;;;;;11.55;9.30;;;18.70;99.90;;;;;;5078294;28;20016;-74
2023/09/07 03:19:57;;;;;;;16.67;10.07;;;18.60;99.90;;;;;;5067693;28;20040;-74
2023/09/07 03:22:23;;;;;;;10.93;9.80;;;18.60;99.90;;;;;;5076455;28;20031;-74
2023/09/07 03:24:52;;;;;;;16.85;10.43;;;18.60;99.90;;;;;;5071843;28;20051;-73
2023/09/07 03:27:18;;;;;;;13.25;10.82;;;18.60;99.90;;;;;;5075452;28;20028;-73
2023/09/07 03:29:51;;;;;;;14.10;10.65;;;18.50;99.90;;;;;;5077861;28;20024;-73
2023/09/07 03:32:17;;;;;;;14.90;11.13;;;18.50;99.90;;;;;;5072288;28;20478;-73
2023/09/07 03:34:42;;;;;;;12.48;10.70;;;18.50;99.90;;;;;;5077244;28;20060;-72
2023/09/07 03:37:11;;;;;;;13.55;11.20;;;18.50;99.90;;;;;;5072354;28;20036;-73
2023/09/07 03:39:37;;;;;;;14.63;12.18;;;18.50;99.90;;;;;;5079360;28;20028;-73
2023/09/07 03:42:03;;;;;;;15.27;11.23;;;18.50;99.90;;;;;;5072784;28;20431;-73
2023/09/07 03:44:28;;;;;;;15.55;11.45;;;18.50;99.90;;;;;;5083064;28;20016;-72
2023/09/07 03:46:54;;;;;;;16.13;11.48;;;18.50;99.90;;;;;;5068495;28;20021;-73
2023/09/07 03:49:20;;;;;;;13.90;11.75;;;18.40;99.90;;;;;;5080917;28;20508;-72
2023/09/07 03:51:45;;;;;;;14.07;11.85;;;18.40;99.90;;;;;;5074044;28;20040;-72
2023/09/07 03:54:11;;;;;;;11.63;10.32;;;18.40;99.90;;;;;;5070932;28;20359;-73
2023/09/07 03:56:39;;;;;;;13.93;11.55;;;18.40;99.90;;;;;;5068222;28;20032;-73
2023/09/07 03:59:04;;;;;;;11.38;9.75;;;18.40;99.90;;;;;;5076742;28;20020;-73
2023/09/07 04:01:30;;;;;;;11.65;9.82;;;18.40;99.90;;;;;;5067241;28;20033;-73
2023/09/07 04:03:56;;;;;;;10.63;9.18;;;18.40;99.90;;;;;;5078541;28;20028;-73
2023/09/07 04:06:23;;;;;;;9.95;8.95;;;18.40;99.90;;;;;;5073557;28;20020;-73
2023/09/07 04:08:49;;;;;;;9.90;8.93;;;18.30;99.90;;;;;;5073115;28;20747;-73
2023/09/07 04:11:15;;;;;;;10.32;8.45;;;18.30;99.90;;;;;;5078949;28;20029;-73
2023/09/07 04:13:40;;;;;;;9.30;8.10;;;18.30;99.90;;;;;;5070875;28;20029;-73
2023/09/07 04:16:08;;;;;;;10.90;7.80;;;18.30;99.90;;;;;;5067000;28;20490;-73
2023/09/07 04:18:34;;;;;;;11.45;9.75;;;18.30;99.90;;;;;;5077107;28;20059;-73
2023/09/07 04:21:09;;;;;;;17.08;10.45;;;18.30;99.90;;;;;;5074910;28;20082;-73
2023/09/07 04:23:35;;;;;;;14.25;10.82;;;18.20;99.90;;;;;;5075888;28;20021;-73
2023/09/07 04:26:08;;;;;;;11.20;10.10;;;18.20;99.90;;;;;;5077103;28;20090;-72
2023/09/07 04:28:33;;;;;;;13.10;10.65;;;18.00;99.90;;;;;;5074296;28;20046;-73
2023/09/07 04:30:59;;;;;;;12.45;10.70;;;18.00;99.90;;;;;;5074165;28;20054;-73
2023/09/07 04:33:25;;;;;;;13.27;10.05;;;18.10;99.90;;;;;;5070945;28;20070;-73
2023/09/07 04:35:51;;;;;;;13.80;11.32;;;18.10;99.90;;;;;;5073338;28;20033;-73
2023/09/07 04:38:16;;;;;;;13.43;11.38;;;18.10;99.90;;;;;;5080976;28;20460;-73
2023/09/07 04:40:42;;;;;;;15.45;12.10;;;18.10;99.90;;;;;;5072438;28;20484;-72
2023/09/07 04:43:07;;;;;;;12.95;11.55;;;18.10;99.90;;;;;;5071086;28;20899;-73
2023/09/07 04:45:33;;;;;;;15.15;12.13;;;18.10;99.90;;;;;;5067418;28;20039;-73
2023/09/07 04:47:59;;;;;;;12.45;10.48;;;18.00;99.90;;;;;;5070628;28;20473;-73
2023/09/07 04:50:25;;;;;;;18.38;10.77;;;18.10;99.90;;;;;;5066959;28;20481;-73
2023/09/07 04:52:51;;;;;;;14.05;10.27;;;18.00;99.90;;;;;;5074072;28;20473;-72
2023/09/07 04:55:16;;;;;;;13.48;11.07;;;18.00;99.90;;;;;;5073269;28;20028;-72
2023/09/07 04:57:42;;;;;;;11.60;9.65;;;18.00;99.90;;;;;;5070167;28;20471;-73
2023/09/07 05:00:11;;;;;;;15.73;10.68;;;18.00;99.90;;;;;;5077474;28;20032;-73
2023/09/07 05:02:41;;;;;;;12.63;10.05;;;17.90;99.90;;;;;;5070558;28;20037;-73
2023/09/07 05:05:07;;;;;;;13.10;10.48;;;17.90;99.90;;;;;;5081652;28;20020;-73
2023/09/07 05:07:33;;;;;;;14.57;11.65;;;17.90;99.90;;;;;;5078735;28;20024;-71
2023/09/07 05:09:59;;;;;;;15.75;12.32;;;17.90;99.90;;;;;;5065620;28;20031;-74
2023/09/07 05:12:25;;;;;;;14.13;12.57;;;17.90;99.90;;;;;;5078797;28;20024;-75
2023/09/07 05:14:50;;;;;;;14.30;11.43;;;17.80;99.90;;;;;;5068111;28;20032;-73
2023/09/07 05:17:16;;;;;;;13.60;11.27;;;17.80;99.90;;;;;;5074631;28;20048;-74
2023/09/07 05:19:42;;;;;;;16.52;11.65;;;17.70;99.90;;;;;;5072461;28;20477;-74
2023/09/07 05:22:08;;;;;;;15.05;12.18;;;17.70;99.90;;;;;;5068335;28;20522;-73
2023/09/07 05:24:33;;;;;;;14.88;12.05;;;17.70;99.90;;;;;;5074985;28;20029;-74
2023/09/07 05:26:59;;;;;;;15.60;11.45;;;17.70;99.90;;;;;;5066603;28;20120;-73
2023/09/07 05:29:25;;;;;;;12.38;10.82;;;17.70;99.90;;;;;;5071543;28;20472;-74
2023/09/07 05:31:50;;;;;;;12.80;10.52;;;17.70;99.90;;;;;;5066647;28;20035;-73
2023/09/07 05:34:16;;;;;;;12.40;11.15;;;17.60;99.90;;;;;;5069309;28;20048;-75
2023/09/07 05:36:42;;;;;;;17.42;11.07;;;17.70;99.90;;;;;;5067851;28;20507;-74
2023/09/07 05:39:07;;;;;;;13.25;10.93;;;17.70;99.90;;;;;;5075534;28;20516;-74
2023/09/07 05:41:33;;;;;;;14.85;11.30;;;17.70;99.90;;;;;;5082350;28;20050;-74
2023/09/07 05:43:59;;;;;;;13.35;11.93;;;17.70;99.90;;;;;;5071599;28;20393;-74
2023/09/07 05:46:24;;;;;;;16.65;12.13;;;17.70;99.90;;;;;;5077229;28;20378;-74
2023/09/07 05:48:51;;;;;;;11.63;10.50;;;17.70;99.90;;;;;;5069537;28;20115;-74
2023/09/07 05:51:16;;;;;;;11.70;10.48;;;17.60;99.90;;;;;;5074613;28;20037;-74
2023/09/07 05:53:42;;;;;;;14.07;11.85;;;17.60;99.90;;;;;;5072515;28;20032;-74
2023/09/07 05:56:08;;;;;;;17.08;13.15;;;17.60;99.90;;;;;;5074059;28;20369;-73
2023/09/07 05:58:33;;;;;;;17.83;13.80;;;17.60;99.90;;;;;;5068642;28;20362;-74
2023/09/07 06:01:00;;;;;;;15.10;11.45;;;17.60;99.90;;;;;;5072237;28;20113;-73
2023/09/07 06:03:25;;;;;;;14.93;11.45;;;17.60;99.90;;;;;;5067905;28;20496;-73
2023/09/07 06:05:51;;;;;;;15.75;11.95;;;17.70;99.90;;;;;;5071623;28;20032;-73
2023/09/07 06:08:17;;;;;;;13.13;11.48;;;17.70;99.90;;;;;;5069014;28;20085;-73
2023/09/07 06:10:42;;;;;;;17.55;13.38;;;17.60;99.90;;;;;;5079617;28;20048;-74
2023/09/07 06:13:08;;;;;;;17.25;12.93;;;17.60;99.90;;;;;;5070591;28;20071;-73
2023/09/07 06:15:34;;;;;;;14.13;12.48;;;17.50;99.90;;;;;;5076848;28;20484;-73
2023/09/07 06:18:00;;;;;;;14.90;12.60;;;17.50;99.90;;;;;;5074979;28;20414;-73
2023/09/07 06:20:26;;;;;;;18.00;10.52;;;17.50;99.90;;;;;;5078022;28;20063;-71
2023/09/07 06:22:51;;;;;;;15.48;11.77;;;17.50;99.90;;;;;;5084620;28;20085;-73
2023/09/07 06:25:17;;;;;;;16.27;12.77;;;17.60;99.90;;;;;;5072612;28;20115;-73
2023/09/07 06:27:43;;;;;;;16.02;12.40;;;17.60;99.90;;;;;;5073926;28;20028;-73
2023/09/07 06:30:09;;;;;;;14.45;12.27;;;17.60;99.90;;;;;;5081635;28;20020;-74
2023/09/07 06:32:35;;;;;;;14.63;12.35;;;17.70;99.90;;;;;;5075134;28;20056;-73
2023/09/07 06:35:00;;;;;;;18.25;13.30;;;17.60;99.90;;;;;;5071749;28;20052;-73
2023/09/07 06:37:26;;;;;;;19.58;13.85;;;17.60;99.90;;;;;;5071095;28;20111;-73
2023/09/07 06:39:52;;;;;;;14.25;11.75;;;17.70;99.90;;;;;;5082152;28;20104;-74
2023/09/07 06:42:18;;;;;;;14.02;11.32;;;17.70;99.90;;;;;;5069814;28;20070;-73
2023/09/07 06:44:44;;;;;;;14.27;11.15;;;17.70;99.90;;;;;;5080978;28;20536;-73
2023/09/07 06:47:10;;;;;;;17.83;12.80;;;17.70;99.90;;;;;;5077603;28;20028;-73
2023/09/07 06:49:38;;;;;;;22.80;11.93;;;17.70;99.90;;;;;;5074918;28;20040;-74
2023/09/07 06:52:04;;;;;;;19.02;12.80;;;17.70;99.90;;;;;;5073359;28;20046;-73
2023/09/07 06:54:30;;;;;;;16.30;11.50;;;17.80;99.90;;;;;;5072691;28;20092;-73
2023/09/07 06:56:56;;;;;;;16.60;12.00;;;17.80;99.90;;;;;;5076005;28;20028;-74
2023/09/07 06:59:21;;;;;;;12.75;11.43;;;17.90;99.90;;;;;;5070952;28;20024;-73
2023/09/07 07:01:47;;;;;;;15.05;11.77;;;17.90;99.90;;;;;;5067631;28;20032;-74
2023/09/07 07:04:13;;;;;;;12.57;11.10;;;17.90;99.90;;;;;;5080299;28;20024;-73
2023/09/07 07:06:39;;;;;;;16.55;13.18;;;17.90;99.90;;;;;;5071600;28;20130;-74
2023/09/07 07:09:05;;;;;;;17.60;15.38;;;18.00;99.90;;;;;;5077975;28;20028;-73
2023/09/07 07:11:31;;;;;;;18.65;13.45;;;18.00;99.90;;;;;;5074128;28;20040;-72
2023/09/07 07:13:56;;;;;;;16.52;11.90;;;18.10;99.90;;;;;;5075233;28;20027;-73
2023/09/07 07:16:22;;;;;;;21.35;13.77;;;18.10;99.90;;;;;;5075840;28;20025;-73
2023/09/07 07:18:48;;;;;;;17.35;12.45;;;18.20;99.90;;;;;;5068474;28;20389;-74
2023/09/07 07:21:13;;;;;;;17.88;13.13;;;18.20;99.90;;;;;;5077838;28;20064;-75
2023/09/07 07:23:39;;;;;;;18.00;13.65;;;18.30;99.90;;;;;;5070432;28;20025;-74
2023/09/07 07:26:05;;;;;;;17.85;13.10;;;18.40;99.90;;;;;;5074551;28;20027;-74
2023/09/07 07:28:31;;;;;;;16.67;13.60;;;18.40;99.90;;;;;;5077673;28;20051;-74
2023/09/07 07:30:57;;;;;;;23.65;16.23;;;18.40;99.90;;;;;;5063437;28;20103;-73
2023/09/07 07:33:23;;;;;;;15.20;12.63;;;18.50;99.90;;;;;;5073696;28;20469;-74
2023/09/07 07:35:48;;;;;;;17.73;12.75;;;18.60;99.90;;;;;;5073699;28;20028;-75
2023/09/07 07:38:14;;;;;;;22.10;12.48;;;18.70;99.90;;;;;;5078656;28;20024;-74
2023/09/07 07:40:41;;;;;;;19.92;11.60;;;18.80;99.90;;;;;;5073849;28;20020;-74
2023/09/07 07:43:07;;;;;;;17.13;11.20;;;18.90;99.90;;;;;;5075419;28;20025;-74
2023/09/07 07:45:36;;;;;;;17.75;11.38;;;19.00;99.90;;;;;;5074086;28;20483;-74
2023/09/07 07:48:05;;;;;;;15.20;10.98;;;19.10;99.90;;;;;;5071393;28;20392;-74
2023/09/07 07:50:31;;;;;;;18.25;11.52;;;19.20;99.90;;;;;;5079455;28;20020;-76
2023/09/07 07:52:57;;;;;;;21.83;11.50;;;19.20;99.90;;;;;;5077707;28;20059;-73
2023/09/07 07:55:22;;;;;;;13.82;10.77;;;19.40;99.90;;;;;;5062246;28;20481;-73
2023/09/07 07:57:48;;;;;;;17.05;9.15;;;19.40;99.90;;;;;;5072718;28;20487;-73
2023/09/07 08:00:14;;;;;;;15.80;8.88;;;19.60;99.90;;;;;;5080310;28;20099;-74
2023/09/07 08:02:40;;;;;;;13.90;8.93;;;19.60;99.90;;;;;;5082619;28;20419;-75
2023/09/07 08:05:06;;;;;;;11.30;7.55;;;19.80;99.90;;;;;;5066100;28;20019;-73
2023/09/07 08:07:31;;;;;;;13.02;9.55;;;19.90;99.90;;;;;;5072781;28;20013;-73
2023/09/07 08:09:57;;;;;;;14.40;9.80;;;20.10;99.90;;;;;;5070407;28;20035;-75
2023/09/07 08:12:23;;;;;;;12.60;8.45;;;20.20;99.90;;;;;;5069160;28;20028;-75
2023/09/07 08:14:48;;;;;;;12.77;8.57;;;20.30;99.90;;;;;;5077450;28;20016;-74
2023/09/07 08:17:14;;;;;;;12.40;8.07;;;20.40;99.90;;;;;;5071189;28;20028;-75
2023/09/07 08:19:40;;;;;;;11.73;8.85;;;20.50;99.90;;;;;;5081481;28;20448;-75
2023/09/07 08:22:06;;;;;;;11.82;8.23;;;20.60;99.90;;;;;;5074766;28;20493;-75
2023/09/07 08:24:32;;;;;;;14.02;7.78;;;20.70;99.90;;;;;;5077643;28;20037;-75
2023/09/07 08:27:00;;;;;;;14.88;8.63;;;20.80;99.90;;;;;;5075862;28;20076;-74
2023/09/07 08:29:26;;;;;;;13.23;7.90;;;20.90;99.90;;;;;;5068250;28;20022;-74
2023/09/07 08:31:55;;;;;;;10.07;7.78;;;21.10;99.90;;;;;;5072195;28;20029;-73
2023/09/07 08:34:22;;;;;;;10.13;7.38;;;21.20;99.90;;;;;;5076582;28;20034;-75
2023/09/07 08:36:49;;;;;;;11.80;7.85;;;21.30;99.90;;;;;;5069315;28;20041;-75
2023/09/07 08:39:16;;;;;;;10.73;7.47;;;21.50;99.90;;;;;;5077417;28;20424;-75
2023/09/07 08:41:46;;;;;;;11.23;7.45;;;21.60;99.90;;;;;;5069542;28;20481;-76
2023/09/07 08:44:22;;;;;;;10.43;6.57;;;21.70;99.90;;;;;;5076890;28;20023;-74
2023/09/07 08:46:51;;;;;;;9.27;6.93;;;21.80;99.90;;;;;;5073080;28;20048;-75
2023/09/07 08:49:21;;;;;;;13.68;6.50;;;21.80;99.90;;;;;;5067483;28;20147;-77
2023/09/07 08:51:48;;;;;;;8.32;6.80;;;21.90;99.90;;;;;;5072915;28;20173;-75
2023/09/07 08:54:13;;;;;;;10.10;7.13;;;22.10;99.90;;;;;;5067020;28;20418;-75
2023/09/07 08:56:39;;;;;;;7.88;6.20;;;22.20;99.90;;;;;;5076363;28;20530;-75
2023/09/07 08:59:05;;;;;;;12.35;7.10;;;22.30;99.90;;;;;;5064703;28;20107;-76
2023/09/07 09:01:31;;;;;;;9.90;6.47;;;22.40;99.90;;;;;;5067410;28;20051;-74
2023/09/07 09:04:00;;;;;;;9.25;6.35;;;22.50;99.90;;;;;;5075051;28;20115;-76
2023/09/07 09:06:25;;;;;;;8.60;6.32;;;22.60;99.90;;;;;;5069566;28;20021;-73
2023/09/07 09:08:56;;;;;;;7.45;6.43;;;22.60;99.90;;;;;;5075978;28;20526;-75
2023/09/07 09:11:24;;;;;;;10.10;6.57;;;22.80;99.90;;;;;;5071489;28;20031;-72
2023/09/07 09:13:52;;;;;;;9.20;6.25;;;22.90;99.90;;;;;;5072181;28;20052;-73
2023/09/07 09:16:19;;;;;;;11.32;6.13;;;23.00;99.90;;;;;;5066476;28;20028;-72
2023/09/07 09:18:55;;;;;;;7.07;5.78;;;23.10;99.90;;;;;;5077403;28;20482;-73
2023/09/07 09:21:27;;;;;;;7.10;6.40;;;23.30;99.90;;;;;;5059779;28;20481;-72
2023/09/07 09:23:57;;;;;;;7.87;6.13;;;23.50;99.90;;;;;;5071778;28;20021;-73
2023/09/07 09:26:23;;;;;;;9.27;6.30;;;23.70;99.90;;;;;;5073018;28;20021;-73
2023/09/07 09:28:52;;;;;;;9.80;5.38;;;23.80;99.90;;;;;;5067072;28;20112;-72
2023/09/07 09:31:17;;;;;;;7.65;5.78;;;24.00;99.90;;;;;;5073376;28;20016;-73
2023/09/07 09:33:48;;;;;;;9.88;5.95;;;24.20;99.90;;;;;;5073059;28;20369;-74
2023/09/07 09:36:14;;;;;;;10.93;5.55;;;24.30;99.90;;;;;;5072285;28;20016;-73
2023/09/07 09:38:40;;;;;;;6.85;6.15;;;24.40;99.90;;;;;;5079100;28;20446;-72
2023/09/07 09:41:07;;;;;;;8.88;5.80;;;24.60;99.90;;;;;;5068238;28;20019;-72
2023/09/07 09:43:33;;;;;;;9.43;5.50;;;24.80;99.90;;;;;;5055970;28;20528;-72
2023/09/07 09:46:00;;;;;;;7.65;5.75;;;25.00;99.90;;;;;;5070660;28;20476;-73
2023/09/07 09:48:28;;;;;;;5.70;5.20;;;25.20;99.90;;;;;;5070542;28;20063;-73
2023/09/07 09:50:54;;;;;;;8.18;5.88;;;25.30;99.90;;;;;;5073549;28;20047;-72
2023/09/07 09:53:20;;;;;;;6.40;4.90;;;25.50;99.90;;;;;;5080831;28;20020;-72
2023/09/07 09:55:52;;;;;;;8.48;5.70;;;25.70;99.90;;;;;;5067007;28;20649;-72
2023/09/07 09:58:18;;;;;;;6.82;5.53;;;25.80;99.90;;;;;;5063748;28;20017;-73
2023/09/07 10:00:48;;;;;;;8.10;5.30;;;25.90;99.90;;;;;;5070498;28;20028;-72
2023/09/07 10:03:23;;;;;;;6.20;5.60;;;26.10;99.90;;;;;;5068162;28;20047;-73
2023/09/07 10:05:49;;;;;;;5.88;5.18;;;26.20;99.90;;;;;;5079508;28;20028;-73
2023/09/07 10:08:18;;;;;;;6.07;5.47;;;26.40;99.90;;;;;;5074133;28;20033;-73
2023/09/07 10:10:47;;;;;;;10.32;5.95;;;26.50;99.90;;;;;;5066592;28;20085;-72
2023/09/07 10:13:16;;;;;;;6.82;5.75;;;26.60;99.90;;;;;;5073209;28;20040;-73
2023/09/07 10:15:42;;;;;;;7.60;5.20;;;26.60;99.90;;;;;;5075847;28;20025;-72
2023/09/07 10:18:13;;;;;;;4.80;4.40;;;26.70;99.90;;;;;;5072092;28;20036;-73
2023/09/07 10:20:58;;;;;;;5.85;4.93;;;26.90;99.90;;;;;;5067173;28;20016;-73
2023/09/07 10:23:44;;;;;;;5.05;4.55;;;27.00;99.90;;;;;;5069309;28;20052;-73
2023/09/07 10:26:12;;;;;;;8.25;5.03;;;27.10;99.90;;;;;;5069674;28;20484;-75
2023/09/07 10:28:38;;;;;;;8.68;4.70;;;27.20;99.90;;;;;;5073870;28;20071;-74
2023/09/07 10:31:06;;;;;;;11.20;4.88;;;27.30;99.90;;;;;;5073013;28;20020;-74
2023/09/07 10:33:33;;;;;;;5.75;4.45;;;27.40;99.90;;;;;;5075543;28;20020;-73
2023/09/07 10:36:00;;;;;;;5.32;4.82;;;27.60;99.90;;;;;;5069366;28;20020;-74
2023/09/07 10:38:26;;;;;;;8.43;4.90;;;27.70;99.90;;;;;;5068775;28;20020;-73
2023/09/07 10:40:57;;;;;;;5.47;4.40;;;27.70;99.90;;;;;;5076165;28;20028;-74
2023/09/07 10:43:24;;;;;;;5.40;4.90;;;27.80;99.90;;;;;;5071696;28;20066;-75
2023/09/07 10:45:50;;;;;;;7.75;4.95;;;27.80;99.90;;;;;;5066368;28;20036;-75
2023/09/07 10:48:19;;;;;;;5.32;4.38;;;27.90;99.90;;;;;;5073508;28;20032;-75
2023/09/07 10:50:46;;;;;;;6.93;4.22;;;28.00;99.90;;;;;;5068900;28;20028;-73
2023/09/07 10:53:14;;;;;;;7.07;4.75;;;28.20;99.90;;;;;;5073437;28;20084;-74
2023/09/07 10:55:40;;;;;;;5.00;4.15;;;28.20;99.90;;;;;;5067690;28;20111;-75
2023/09/07 10:58:08;;;;;;;6.70;4.15;;;28.30;99.90;;;;;;5079085;28;20036;-75
2023/09/07 11:00:34;;;;;;;4.57;4.03;;;28.50;99.90;;;;;;5073506;28;20073;-75
2023/09/07 11:03:10;;;;;;;6.10;4.80;;;28.60;99.90;;;;;;5071431;28;20103;-74
2023/09/07 11:05:37;;;;;;;8.35;4.50;;;28.70;99.90;;;;;;5077056;28;20123;-75
2023/09/07 11:08:07;;;;;;;6.35;4.63;;;28.70;99.90;;;;;;5083562;28;20059;-74
2023/09/07 11:10:34;;;;;;;6.70;4.50;;;28.80;99.90;;;;;;5077635;28;20392;-75
2023/09/07 11:13:06;;;;;;;4.93;3.38;;;28.80;99.90;;;;;;5074841;28;20025;-75
2023/09/07 11:15:36;;;;;;;7.47;3.75;;;28.90;99.90;;;;;;5076571;28;20031;-75
2023/09/07 11:18:08;;;;;;;6.25;4.00;;;29.00;99.90;;;;;;5067725;28;20036;-74
2023/09/07 11:20:39;;;;;;;4.72;4.32;;;29.10;99.90;;;;;;5072334;28;20036;-75
2023/09/07 11:23:06;;;;;;;5.72;4.15;;;29.20;99.90;;;;;;5072542;28;20142;-75
2023/09/07 11:25:38;;;;;;;7.25;3.90;;;29.30;99.90;;;;;;5075341;28;20025;-75
2023/09/07 11:28:10;;;;;;;4.82;3.97;;;29.40;99.90;;;;;;5082098;28;20423;-75
2023/09/07 11:30:35;;;;;;;5.07;3.70;;;29.50;99.90;;;;;;5076534;28;20021;-75
2023/09/07 11:33:06;;;;;;;5.82;3.53;;;29.60;99.90;;;;;;5065337;28;20504;-75
2023/09/07 11:35:33;;;;;;;4.68;3.80;;;29.70;99.90;;;;;;5073194;28;20384;-75
2023/09/07 11:38:04;;;;;;;4.82;3.95;;;29.70;99.90;;;;;;5075930;28;20017;-75
2023/09/07 11:40:30;;;;;;;4.00;3.70;;;29.70;99.90;;;;;;5070950;28;20052;-75
2023/09/07 11:42:56;;;;;;;6.15;3.55;;;29.80;99.90;;;;;;5075573;28;20025;-75
2023/09/07 11:45:23;;;;;;;4.93;4.05;;;29.90;99.90;;;;;;5079070;28;20028;-76
2023/09/07 11:47:48;;;;;;;5.03;4.30;;;30.00;99.90;;;;;;5071518;28;20035;-76
2023/09/07 11:50:17;;;;;;;4.43;4.03;;;30.00;99.90;;;;;;5076966;28;20016;-75
2023/09/07 11:52:43;;;;;;;5.65;3.92;;;30.10;99.90;;;;;;5074848;28;20028;-74
2023/09/07 11:55:10;;;;;;;4.25;3.47;;;30.10;99.90;;;;;;5074523;28;20049;-74
2023/09/07 11:57:36;;;;;;;4.55;3.53;;;30.20;99.90;;;;;;5070331;28;20347;-75
2023/09/07 12:00:05;;;;;;;6.40;3.90;;;30.20;99.90;;;;;;5073841;28;20025;-75
2023/09/07 12:02:30;;;;;;;4.10;3.65;;;30.20;99.90;;;;;;5077386;28;20105;-77
2023/09/07 12:04:56;;;;;;;7.75;4.07;;;30.20;99.90;;;;;;5075312;28;20103;-76
2023/09/07 12:07:22;;;;;;;5.10;3.92;;;30.20;99.90;;;;;;5071197;28;20081;-75
2023/09/07 12:09:48;;;;;;;7.05;4.53;;;30.10;99.90;;;;;;5076816;28;20033;-75
2023/09/07 12:12:14;;;;;;;5.38;4.10;;;30.30;99.90;;;;;;5068127;28;20037;-76
2023/09/07 12:14:39;;;;;;;5.50;4.25;;;30.30;99.90;;;;;;5072412;28;20039;-76
2023/09/07 12:17:05;;;;;;;6.40;4.78;;;30.20;99.90;;;;;;5075852;28;20020;-74
2023/09/07 12:19:31;;;;;;;5.63;4.10;;;30.20;99.90;;;;;;5074796;28;20082;-75
2023/09/07 12:21:57;;;;;;;4.68;4.18;;;30.40;99.90;;;;;;5076818;28;20016;-75
2023/09/07 12:24:22;;;;;;;4.30;3.85;;;30.40;99.90;;;;;;5073572;28;20025;-75
2023/09/07 12:26:48;;;;;;;5.25;4.47;;;30.40;99.90;;;;;;5080013;28;20052;-75
2023/09/07 12:29:14;;;;;;;7.25;4.45;;;30.40;99.90;;;;;;5077559;28;20111;-76
2023/09/07 12:31:40;;;;;;;6.38;4.35;;;30.30;99.90;;;;;;5067837;28;20041;-76
2023/09/07 12:34:05;;;;;;;5.45;4.45;;;30.40;99.90;;;;;;5080079;28;20032;-75